Terminal Aerodrome Forecast
Issued by NWS

Home | Current Version | Previous Version | Text Only | Print | Product List | Glossary On
Versions: 1 2 3 4 5 6 7 8 9 10 11 12 13 14 15 16 17 18 19
142
FTUS43 KAPX 161720
TAFPLN
TAF
KPLN 161720Z 1618/1718 18005KT P6SM SKC
     FM170300 00000KT 5SM BR BKN250
     FM170700 09004KT 3SM BR VCSH BKN060
     FM170800 09004KT 2SM BR VCSH OVC015
     FM171000 09005KT 1 1/2SM -SN BR OVC010
     FM171400 08007KT 3/4SM -FZRAPL BR OVC008
     FM171500 08007KT 3/4SM -FZRASNPL BR OVC003=

USA.gov is the U.S. government's official web portal to all federal, state and local government web resources and services.